createdAt,value
2017-04-25T00:00:08.788Z,0
2017-04-25T00:01:09.414Z,0
2017-04-25T00:02:10.030Z,0
2017-04-25T00:03:10.674Z,0
2017-04-25T00:04:11.299Z,0
2017-04-25T00:05:11.891Z,0
2017-04-25T00:06:12.487Z,0
2017-04-25T00:07:13.101Z,0
2017-04-25T00:08:13.705Z,0
2017-04-25T00:09:14.302Z,0
2017-04-25T00:10:14.914Z,0
2017-04-25T00:11:15.524Z,0
2017-04-25T00:12:16.121Z,0
2017-04-25T00:13:16.723Z,0
2017-04-25T00:14:17.320Z,0
2017-04-25T00:15:17.929Z,0
2017-04-25T00:16:18.526Z,0
2017-04-25T00:17:19.134Z,0
2017-04-25T00:18:19.735Z,0
2017-04-25T00:19:20.344Z,0
2017-04-25T00:20:20.940Z,0
2017-04-25T00:21:21.548Z,0
2017-04-25T00:22:22.154Z,0
2017-04-25T00:23:22.761Z,0
2017-04-25T00:24:23.368Z,0
2017-04-25T00:25:23.977Z,0
2017-04-25T00:26:24.585Z,0
2017-04-25T00:27:25.190Z,0
2017-04-25T00:28:25.798Z,0
2017-04-25T00:29:26.410Z,0
2017-04-25T00:30:27.005Z,0
2017-04-25T00:31:27.612Z,0
2017-04-25T00:32:28.208Z,0
2017-04-25T00:33:28.814Z,0
2017-04-25T00:34:29.412Z,0
2017-04-25T00:35:30.021Z,0
2017-04-25T00:36:30.636Z,0
2017-04-25T00:37:31.238Z,0
2017-04-25T00:38:31.831Z,0
2017-04-25T00:39:32.427Z,0
2017-04-25T00:40:33.034Z,0
2017-04-25T00:41:33.632Z,0
2017-04-25T00:42:34.248Z,0
2017-04-25T00:43:34.858Z,0
2017-04-25T00:44:35.464Z,0
2017-04-25T00:45:36.071Z,0
2017-04-25T00:46:36.670Z,0
2017-04-25T00:47:37.271Z,0
2017-04-25T00:48:37.872Z,0
2017-04-25T00:49:38.468Z,0
2017-04-25T00:50:39.079Z,0
2017-04-25T00:51:39.687Z,0
2017-04-25T00:52:40.297Z,0
2017-04-25T00:53:40.899Z,0
2017-04-25T00:54:41.498Z,0
2017-04-25T00:55:42.110Z,0
2017-04-25T00:56:42.723Z,0
2017-04-25T00:57:43.327Z,0
2017-04-25T00:58:43.938Z,0
2017-04-25T00:59:44.529Z,0
2017-04-25T01:00:45.142Z,0
2017-04-25T01:01:45.753Z,0
2017-04-25T01:02:46.359Z,0
2017-04-25T01:03:46.973Z,0
2017-04-25T01:04:47.578Z,0
2017-04-25T01:05:48.174Z,0
2017-04-25T01:06:48.770Z,0
2017-04-25T01:07:49.367Z,0
2017-04-25T01:08:49.978Z,0
2017-04-25T01:09:50.591Z,0
2017-04-25T01:10:51.197Z,0
2017-04-25T01:11:51.810Z,0
2017-04-25T01:12:52.407Z,0
2017-04-25T01:13:53.017Z,0
2017-04-25T01:14:53.610Z,0
2017-04-25T01:15:54.218Z,0
2017-04-25T01:16:54.810Z,0
2017-04-25T01:17:55.406Z,0
2017-04-25T01:18:56.020Z,0
2017-04-25T01:19:56.672Z,0
2017-04-25T01:20:57.275Z,0
2017-04-25T01:21:57.880Z,0
2017-04-25T01:22:58.480Z,0
2017-04-25T01:23:59.079Z,0
2017-04-25T01:24:59.682Z,0
2017-04-25T01:26:00.289Z,0
2017-04-25T01:27:00.883Z,0
2017-04-25T01:28:01.485Z,0
2017-04-25T01:29:02.081Z,0
2017-04-25T01:30:02.740Z,0
2017-04-25T01:31:03.338Z,0
2017-04-25T01:32:03.945Z,0
2017-04-25T01:33:04.550Z,0
2017-04-25T01:34:05.143Z,0
2017-04-25T01:35:05.753Z,0
2017-04-25T01:36:06.343Z,0
2017-04-25T01:37:06.948Z,0
2017-04-25T01:38:07.552Z,0
2017-04-25T01:39:08.152Z,0
2017-04-25T01:40:08.749Z,0
2017-04-25T01:41:09.359Z,0
2017-04-25T01:42:09.959Z,0
2017-04-25T01:43:10.561Z,0
2017-04-25T01:44:11.157Z,0
2017-04-25T01:45:11.748Z,0
2017-04-25T01:46:12.338Z,0
2017-04-25T01:47:12.930Z,0
2017-04-25T01:48:13.531Z,0
2017-04-25T01:49:14.130Z,0
2017-04-25T01:50:14.720Z,0
2017-04-25T01:51:15.330Z,0
2017-04-25T01:52:15.938Z,0
2017-04-25T01:53:16.542Z,0
2017-04-25T01:54:17.134Z,0
2017-04-25T01:55:17.736Z,0
2017-04-25T01:56:18.335Z,0
2017-04-25T01:57:18.927Z,0
2017-04-25T01:58:19.520Z,0
2017-04-25T01:59:20.126Z,0
2017-04-25T02:00:20.719Z,0
2017-04-25T02:01:21.316Z,0
2017-04-25T02:02:21.933Z,0
2017-04-25T02:03:22.538Z,0
2017-04-25T02:04:23.143Z,0
2017-04-25T02:05:23.750Z,0
2017-04-25T02:06:24.357Z,0
2017-04-25T02:07:24.966Z,0
2017-04-25T02:08:25.576Z,0
2017-04-25T02:09:26.170Z,0
2017-04-25T02:10:26.774Z,0
2017-04-25T02:11:27.381Z,0
2017-04-25T02:12:27.970Z,0
2017-04-25T02:13:28.563Z,0
2017-04-25T02:14:29.160Z,0
2017-04-25T02:15:29.748Z,0
2017-04-25T02:16:30.344Z,0
2017-04-25T02:17:30.953Z,0
2017-04-25T02:18:31.557Z,0
2017-04-25T02:19:32.152Z,0
2017-04-25T02:20:32.744Z,0
2017-04-25T02:21:33.354Z,0
2017-04-25T02:22:33.949Z,0
2017-04-25T02:23:34.544Z,0
2017-04-25T02:24:35.139Z,0
2017-04-25T02:25:35.743Z,0
2017-04-25T02:26:36.346Z,0
2017-04-25T02:27:36.940Z,0
2017-04-25T02:28:37.537Z,0
2017-04-25T02:29:38.142Z,0
2017-04-25T02:30:38.787Z,0
2017-04-25T02:31:39.382Z,0
2017-04-25T02:32:39.987Z,0
2017-04-25T02:33:40.578Z,0
2017-04-25T02:34:41.181Z,0
2017-04-25T02:35:41.785Z,0
2017-04-25T02:36:42.391Z,0
2017-04-25T02:37:43.000Z,0
2017-04-25T02:38:43.606Z,0
2017-04-25T02:39:44.198Z,0
2017-04-25T02:40:44.787Z,0
2017-04-25T02:41:45.395Z,0
2017-04-25T02:42:45.999Z,0
2017-04-25T02:43:46.603Z,0
2017-04-25T02:44:47.196Z,0
2017-04-25T02:45:47.804Z,0
2017-04-25T02:46:48.395Z,0
2017-04-25T02:47:48.999Z,0
2017-04-25T02:48:49.593Z,0
2017-04-25T02:49:50.196Z,0
2017-04-25T02:50:50.789Z,0
2017-04-25T02:51:51.387Z,0
2017-04-25T02:52:51.979Z,0
2017-04-25T02:53:52.580Z,0
2017-04-25T02:54:53.169Z,0
2017-04-25T02:55:53.763Z,0
2017-04-25T02:56:54.370Z,0
2017-04-25T02:57:54.975Z,0
2017-04-25T02:58:55.583Z,0
2017-04-25T02:59:56.176Z,0
2017-04-25T03:00:56.780Z,0
2017-04-25T03:01:57.385Z,0
2017-04-25T03:02:57.978Z,0
2017-04-25T03:03:58.577Z,0
2017-04-25T03:04:59.167Z,0
2017-04-25T03:05:59.816Z,0
2017-04-25T03:07:00.417Z,0
2017-04-25T03:08:01.020Z,0
2017-04-25T03:09:01.615Z,0
2017-04-25T03:10:02.211Z,0
2017-04-25T03:11:02.804Z,0
2017-04-25T03:12:03.395Z,0
2017-04-25T03:13:03.998Z,0
2017-04-25T03:14:04.606Z,0
2017-04-25T03:15:05.213Z,0
2017-04-25T03:16:05.808Z,0
2017-04-25T03:17:06.405Z,0
2017-04-25T03:18:07.009Z,0
2017-04-25T03:19:07.616Z,0
2017-04-25T03:20:08.210Z,0
2017-04-25T03:21:08.814Z,0
2017-04-25T03:22:09.421Z,0
2017-04-25T03:23:10.026Z,0
2017-04-25T03:24:10.620Z,0
2017-04-25T03:25:11.206Z,0
2017-04-25T03:26:11.797Z,0
2017-04-25T03:27:12.400Z,0
2017-04-25T03:28:13.001Z,0
2017-04-25T03:29:13.603Z,0
2017-04-25T03:30:14.205Z,0
2017-04-25T03:31:14.799Z,0
2017-04-25T03:32:15.403Z,0
2017-04-25T03:33:16.006Z,0
2017-04-25T03:34:16.597Z,0
2017-04-25T03:35:17.200Z,0
2017-04-25T03:36:17.804Z,0
2017-04-25T03:37:18.412Z,0
2017-04-25T03:38:19.027Z,0
2017-04-25T03:39:19.631Z,0
2017-04-25T03:40:20.226Z,0
2017-04-25T03:41:20.816Z,0
2017-04-25T03:42:21.423Z,0
2017-04-25T03:43:22.011Z,0
2017-04-25T03:44:22.607Z,0
2017-04-25T03:45:23.211Z,0
2017-04-25T03:46:23.819Z,0
2017-04-25T03:47:24.429Z,0
2017-04-25T03:48:25.023Z,0
2017-04-25T03:49:25.611Z,4
2017-04-25T03:50:26.207Z,4
2017-04-25T03:51:26.812Z,4
2017-04-25T03:52:27.408Z,4
2017-04-25T03:53:28.009Z,0
2017-04-25T03:54:28.614Z,4
2017-04-25T03:55:29.211Z,4
2017-04-25T03:56:29.802Z,4
2017-04-25T03:57:30.408Z,8
2017-04-25T03:58:31.004Z,16
2017-04-25T03:59:31.598Z,16
2017-04-25T04:00:32.200Z,12
2017-04-25T04:01:32.804Z,8
2017-04-25T04:02:33.411Z,12
2017-04-25T04:03:34.017Z,16
2017-04-25T04:04:34.608Z,20
2017-04-25T04:05:35.214Z,24
2017-04-25T04:06:35.812Z,32
2017-04-25T04:07:36.405Z,36
2017-04-25T04:08:37.011Z,48
2017-04-25T04:09:37.613Z,64
2017-04-25T04:10:38.238Z,80
2017-04-25T04:11:38.824Z,100
2017-04-25T04:12:39.430Z,104
2017-04-25T04:13:40.027Z,112
2017-04-25T04:14:40.636Z,132
2017-04-25T04:15:41.244Z,148
2017-04-25T04:16:41.847Z,152
2017-04-25T04:17:42.438Z,148
2017-04-25T04:18:43.044Z,144
2017-04-25T04:19:43.647Z,120
2017-04-25T04:20:44.250Z,140
2017-04-25T04:21:44.848Z,156
2017-04-25T04:22:45.444Z,84
2017-04-25T04:23:46.049Z,76
2017-04-25T04:24:46.662Z,116
2017-04-25T04:25:47.260Z,172
2017-04-25T04:26:47.916Z,236
2017-04-25T04:27:48.511Z,208
2017-04-25T04:28:49.121Z,160
2017-04-25T04:29:49.730Z,120
2017-04-25T04:30:50.335Z,140
2017-04-25T04:31:50.934Z,192
2017-04-25T04:32:51.525Z,288
2017-04-25T04:33:52.120Z,352
2017-04-25T04:34:52.724Z,488
2017-04-25T04:35:53.329Z,592
2017-04-25T04:36:53.991Z,664
2017-04-25T04:37:54.601Z,700
2017-04-25T04:38:55.206Z,768
2017-04-25T04:39:55.817Z,804
2017-04-25T04:40:56.414Z,780
2017-04-25T04:41:57.016Z,704
2017-04-25T04:42:57.625Z,636
2017-04-25T04:43:58.218Z,760
2017-04-25T04:44:58.818Z,968
2017-04-25T04:45:59.431Z,1028
2017-04-25T04:47:00.037Z,900
2017-04-25T04:48:00.641Z,908
2017-04-25T04:49:01.236Z,1020
2017-04-25T04:50:01.848Z,1100
2017-04-25T04:51:02.446Z,1164
2017-04-25T04:52:03.054Z,1188
2017-04-25T04:53:03.654Z,1320
2017-04-25T04:54:04.265Z,1572
2017-04-25T04:55:04.865Z,1712
2017-04-25T04:56:05.468Z,1712
2017-04-25T04:57:06.081Z,1560
2017-04-25T04:58:06.696Z,1268
2017-04-25T04:59:07.302Z,1280
2017-04-25T05:00:07.908Z,1636
2017-04-25T05:01:08.503Z,2200
2017-04-25T05:02:09.111Z,2468
2017-04-25T05:03:09.720Z,2436
2017-04-25T05:04:10.316Z,2180
2017-04-25T05:05:10.914Z,2216
2017-04-25T05:06:11.526Z,2240
2017-04-25T05:07:12.121Z,2236
2017-04-25T05:08:12.751Z,1840
2017-04-25T05:09:13.320Z,1424
2017-04-25T05:10:13.921Z,1400
2017-04-25T05:11:14.524Z,1644
2017-04-25T05:12:15.181Z,1308
2017-04-25T05:13:15.796Z,980
2017-04-25T05:14:16.404Z,864
2017-04-25T05:15:17.008Z,1020
2017-04-25T05:16:17.606Z,1324
2017-04-25T05:17:18.257Z,1816
2017-04-25T05:18:18.863Z,2156
2017-04-25T05:19:19.471Z,2124
2017-04-25T05:20:20.081Z,1796
2017-04-25T05:21:20.685Z,1500
2017-04-25T05:22:21.293Z,1492
2017-04-25T05:23:21.903Z,1572
2017-04-25T05:24:22.512Z,1756
2017-04-25T05:25:23.125Z,2216
2017-04-25T05:26:23.735Z,3036
2017-04-25T05:27:24.343Z,3920
2017-04-25T05:28:24.974Z,3664
2017-04-25T05:29:25.560Z,3288
2017-04-25T05:30:26.166Z,3428
2017-04-25T05:31:26.762Z,3996
2017-04-25T05:32:27.363Z,4016
2017-04-25T05:33:27.960Z,3732
2017-04-25T05:34:28.559Z,3664
2017-04-25T05:35:29.172Z,3764
2017-04-25T05:36:29.782Z,3748
2017-04-25T05:37:30.400Z,3464
2017-04-25T05:38:30.988Z,3316
2017-04-25T05:39:31.595Z,3680
2017-04-25T05:40:32.188Z,4208
2017-04-25T05:41:32.787Z,4876
2017-04-25T05:42:33.400Z,5524
2017-04-25T05:43:34.015Z,6064
2017-04-25T05:44:34.626Z,6460
2017-04-25T05:45:35.232Z,6508
2017-04-25T05:46:35.839Z,6436
2017-04-25T05:47:36.452Z,6504
2017-04-25T05:48:37.051Z,6572
2017-04-25T05:49:37.660Z,6528
2017-04-25T05:50:38.259Z,6512
2017-04-25T05:51:38.871Z,6576
2017-04-25T05:52:39.481Z,6640
2017-04-25T05:53:40.086Z,6808
2017-04-25T05:54:40.680Z,7228
2017-04-25T05:55:41.278Z,7720
2017-04-25T05:56:41.878Z,8120
2017-04-25T05:57:42.555Z,8540
2017-04-25T05:58:43.180Z,8884
2017-04-25T05:59:43.779Z,8856
2017-04-25T06:00:44.389Z,9064
2017-04-25T06:01:44.990Z,9836
2017-04-25T06:02:45.598Z,10620
2017-04-25T06:03:46.205Z,11156
2017-04-25T06:04:46.815Z,11404
2017-04-25T06:05:47.415Z,11304
2017-04-25T06:06:48.101Z,11012
2017-04-25T06:07:48.743Z,10896
2017-04-25T06:08:49.351Z,10620
2017-04-25T06:09:49.978Z,10400
2017-04-25T06:10:50.610Z,10712
2017-04-25T06:11:51.219Z,11164
2017-04-25T06:12:51.820Z,11820
2017-04-25T06:13:52.435Z,12552
2017-04-25T06:14:53.045Z,13352
2017-04-25T06:15:53.647Z,13656
2017-04-25T06:16:54.247Z,13896
2017-04-25T06:17:54.855Z,14064
2017-04-25T06:18:55.463Z,14484
2017-04-25T06:19:56.068Z,14728
2017-04-25T06:20:56.679Z,21664
2017-04-25T06:21:57.291Z,16868
2017-04-25T06:22:57.902Z,19072
2017-04-25T06:23:58.504Z,20064
2017-04-25T06:24:59.113Z,28896
2017-04-25T06:25:59.712Z,25120
2017-04-25T06:27:00.327Z,17968
2017-04-25T06:28:00.951Z,17856
2017-04-25T06:29:01.572Z,31328
2017-04-25T06:30:02.175Z,25024
2017-04-25T06:31:02.778Z,16040
2017-04-25T06:32:03.380Z,16052
2017-04-25T06:33:03.982Z,23296
2017-04-25T06:34:04.595Z,31232
2017-04-25T06:35:05.205Z,30272
2017-04-25T06:36:05.814Z,31296
2017-04-25T06:37:06.433Z,33792
2017-04-25T06:38:07.046Z,27232
2017-04-25T06:39:07.653Z,41504
2017-04-25T06:40:08.256Z,42944
2017-04-25T06:41:08.869Z,31136
2017-04-25T06:42:09.481Z,44736
2017-04-25T06:43:10.137Z,47808
2017-04-25T06:44:10.760Z,28832
2017-04-25T06:45:11.364Z,31136
2017-04-25T06:46:11.971Z,29760
2017-04-25T06:47:12.591Z,29920
2017-04-25T06:48:13.210Z,27872
2017-04-25T06:49:13.827Z,27776
2017-04-25T06:50:14.444Z,25632
2017-04-25T06:51:15.056Z,25056
2017-04-25T06:52:15.661Z,23328
2017-04-25T06:53:16.280Z,21472
2017-04-25T06:54:16.885Z,22272
2017-04-25T06:55:17.499Z,30496
2017-04-25T06:56:18.118Z,28512
2017-04-25T06:57:18.728Z,38624
2017-04-25T06:58:19.348Z,21376
2017-04-25T06:59:19.948Z,21568
2017-04-25T07:00:20.558Z,24832
2017-04-25T07:01:21.201Z,46592
2017-04-25T07:02:21.783Z,55488
2017-04-25T07:03:22.398Z,60928
2017-04-25T07:04:23.013Z,35520
2017-04-25T07:05:23.663Z,45184
2017-04-25T07:06:24.265Z,38432
2017-04-25T07:07:24.886Z,23520
2017-04-25T07:08:25.606Z,23840
2017-04-25T07:09:26.213Z,32352
2017-04-25T07:10:26.829Z,31264
2017-04-25T07:11:27.439Z,22624
2017-04-25T07:12:28.063Z,25920
2017-04-25T07:13:28.681Z,49824
2017-04-25T07:14:29.296Z,29920
2017-04-25T07:15:29.922Z,16992
2017-04-25T07:16:30.535Z,10308
2017-04-25T07:17:31.150Z,7972
2017-04-25T07:18:32.036Z,7212
2017-04-25T07:19:32.637Z,6484
2017-04-25T07:20:33.248Z,7960
2017-04-25T07:21:33.856Z,10976
2017-04-25T07:22:34.468Z,13116
2017-04-25T07:23:35.070Z,15456
2017-04-25T07:24:35.689Z,15404
2017-04-25T07:25:36.302Z,14124
2017-04-25T07:26:36.916Z,13000
2017-04-25T07:27:37.528Z,12996
2017-04-25T07:28:38.145Z,14084
2017-04-25T07:29:38.759Z,14520
2017-04-25T07:30:39.368Z,16464
2017-04-25T07:31:39.971Z,20160
2017-04-25T07:32:40.575Z,43168
2017-04-25T07:33:41.239Z,49696
2017-04-25T07:34:41.854Z,52640
2017-04-25T07:35:42.475Z,54336
2017-04-25T07:36:43.099Z,58080
2017-04-25T07:37:43.920Z,65536
2017-04-25T07:38:44.596Z,66944
2017-04-25T07:39:45.215Z,36064
2017-04-25T07:40:45.836Z,26368
2017-04-25T07:41:46.444Z,19084
2017-04-25T07:42:47.080Z,17492
2017-04-25T07:43:47.712Z,19768
2017-04-25T07:44:48.332Z,24352
2017-04-25T07:45:48.957Z,29344
2017-04-25T07:46:49.560Z,55456
2017-04-25T07:47:50.178Z,50848
2017-04-25T07:48:50.835Z,18612
2017-04-25T07:49:51.452Z,15912
2017-04-25T07:50:52.067Z,14124
2017-04-25T07:51:52.687Z,13960
2017-04-25T07:52:53.305Z,15076
2017-04-25T07:53:53.957Z,17772
2017-04-25T07:54:54.573Z,48544
2017-04-25T07:55:55.189Z,51168
2017-04-25T07:56:55.808Z,53440
2017-04-25T07:57:56.426Z,55008
2017-04-25T07:58:57.031Z,48768
2017-04-25T07:59:57.651Z,49984
2017-04-25T08:00:58.274Z,55264
2017-04-25T08:01:58.887Z,60896
2017-04-25T08:02:59.503Z,60960
2017-04-25T08:04:00.116Z,15708
2017-04-25T08:05:00.735Z,13392
2017-04-25T08:06:01.340Z,17488
2017-04-25T08:07:01.949Z,65856
2017-04-25T08:08:02.572Z,69376
2017-04-25T08:09:03.193Z,71744
2017-04-25T08:10:03.814Z,74688
2017-04-25T08:11:04.439Z,17672
2017-04-25T08:12:05.063Z,74336
2017-04-25T08:13:05.683Z,78208
2017-04-25T08:14:06.352Z,77888
2017-04-25T08:15:06.977Z,79936
2017-04-25T08:16:07.600Z,76448
2017-04-25T08:17:08.225Z,65728
2017-04-25T08:18:08.850Z,72960
2017-04-25T08:19:09.472Z,80832
2017-04-25T08:20:10.082Z,84096
2017-04-25T08:21:10.700Z,86912
2017-04-25T08:22:11.316Z,89760
2017-04-25T08:23:11.938Z,89376
2017-04-25T08:24:12.563Z,85472
2017-04-25T08:25:13.189Z,83872
2017-04-25T08:26:13.820Z,83712
2017-04-25T08:27:14.437Z,83232
2017-04-25T08:28:15.065Z,88800
2017-04-25T08:29:15.690Z,88640
2017-04-25T08:30:16.315Z,52704
2017-04-25T08:31:16.945Z,83200
2017-04-25T08:32:17.587Z,79712
2017-04-25T08:33:18.187Z,74816
2017-04-25T08:34:18.813Z,79072
2017-04-25T08:35:19.427Z,81888
2017-04-25T08:36:20.053Z,84704
2017-04-25T08:37:20.676Z,86624
2017-04-25T08:38:21.292Z,89120
2017-04-25T08:39:21.923Z,90528
2017-04-25T08:40:22.547Z,92736
2017-04-25T08:41:23.174Z,86624
2017-04-25T08:42:23.795Z,16984
2017-04-25T08:43:24.421Z,15588
2017-04-25T08:44:25.047Z,82592
2017-04-25T08:45:25.659Z,49440
2017-04-25T08:46:26.292Z,80352
2017-04-25T08:47:26.908Z,80512
2017-04-25T08:48:27.538Z,93408
2017-04-25T08:49:28.211Z,37696
2017-04-25T08:50:28.869Z,74656
2017-04-25T08:51:29.482Z,87744
2017-04-25T08:52:30.103Z,31968
2017-04-25T08:53:30.720Z,23264
2017-04-25T08:54:31.343Z,79328
2017-04-25T08:55:31.964Z,28160
2017-04-25T08:56:32.609Z,90272
2017-04-25T08:57:33.212Z,102592
2017-04-25T08:58:33.842Z,79520
2017-04-25T08:59:34.518Z,99744
2017-04-25T09:00:35.134Z,93536
2017-04-25T09:01:35.782Z,91360
2017-04-25T09:02:36.393Z,92128
2017-04-25T09:03:37.013Z,21728
2017-04-25T09:04:37.633Z,21088
2017-04-25T09:05:38.259Z,97376
2017-04-25T09:06:38.884Z,35200
2017-04-25T09:07:39.505Z,90752
2017-04-25T09:08:40.115Z,39648
2017-04-25T09:09:40.738Z,56544
2017-04-25T09:10:41.344Z,37504
2017-04-25T09:11:41.962Z,36160
2017-04-25T09:12:42.573Z,111616
2017-04-25T09:13:43.193Z,43744
2017-04-25T09:14:43.806Z,43200
2017-04-25T09:15:44.412Z,89408
2017-04-25T09:16:45.029Z,45408
2017-04-25T09:17:45.641Z,40448
2017-04-25T09:18:46.265Z,46656
2017-04-25T09:19:46.891Z,33888
2017-04-25T09:20:47.503Z,27808
2017-04-25T09:21:48.128Z,28768
2017-04-25T09:22:48.751Z,36160
2017-04-25T09:23:49.370Z,44064
2017-04-25T09:24:50.025Z,88128
2017-04-25T09:25:50.641Z,33088
2017-04-25T09:26:51.261Z,30720
2017-04-25T09:27:51.869Z,32992
2017-04-25T09:28:52.494Z,34240
2017-04-25T09:29:53.107Z,36000
2017-04-25T09:30:53.725Z,32032
2017-04-25T09:31:54.338Z,36192
2017-04-25T09:32:54.954Z,119424
2017-04-25T09:33:55.563Z,33024
2017-04-25T09:34:56.178Z,46208
2017-04-25T09:35:56.799Z,104032
2017-04-25T09:36:57.418Z,98784
2017-04-25T09:37:58.041Z,62048
2017-04-25T09:38:58.668Z,53056
2017-04-25T09:39:59.327Z,36512
2017-04-25T09:40:59.928Z,35296
2017-04-25T09:42:00.749Z,73600
2017-04-25T09:43:01.359Z,102976
2017-04-25T09:44:01.968Z,99488
2017-04-25T09:45:02.593Z,105152
2017-04-25T09:46:03.210Z,98208
2017-04-25T09:47:03.830Z,65568
2017-04-25T09:48:04.446Z,42912
2017-04-25T09:49:05.062Z,43616
2017-04-25T09:50:05.720Z,39968
2017-04-25T09:51:06.322Z,46944
2017-04-25T09:52:06.939Z,88416
2017-04-25T09:53:07.585Z,101056
2017-04-25T09:54:08.203Z,93440
2017-04-25T09:55:08.826Z,105920
2017-04-25T09:56:09.450Z,37344
2017-04-25T09:57:10.078Z,111072
2017-04-25T09:58:10.706Z,113664
2017-04-25T09:59:11.329Z,38432
2017-04-25T10:00:11.936Z,36640
2017-04-25T10:01:12.547Z,38048
2017-04-25T10:02:13.160Z,33600
2017-04-25T10:03:13.786Z,55616
2017-04-25T10:04:14.406Z,47392
2017-04-25T10:05:15.177Z,99168
2017-04-25T10:06:15.799Z,89856
2017-04-25T10:07:16.409Z,116576
2017-04-25T10:08:17.030Z,117920
2017-04-25T10:09:17.652Z,110048
2017-04-25T10:10:18.281Z,109952
2017-04-25T10:11:18.907Z,108992
2017-04-25T10:12:19.518Z,114176
2017-04-25T10:13:20.144Z,115840
2017-04-25T10:14:20.768Z,126496
2017-04-25T10:15:21.391Z,124768
2017-04-25T10:16:22.008Z,32960
2017-04-25T10:17:22.620Z,45952
2017-04-25T10:18:23.278Z,123968
2017-04-25T10:19:23.919Z,142656
2017-04-25T10:20:24.592Z,86144
2017-04-25T10:21:25.203Z,135328
2017-04-25T10:22:25.813Z,66848
2017-04-25T10:23:26.433Z,102560
2017-04-25T10:24:27.058Z,75744
2017-04-25T10:25:27.914Z,62016
2017-04-25T10:26:28.550Z,41344
2017-04-25T10:27:29.398Z,32960
2017-04-25T10:28:30.023Z,27616
2017-04-25T10:29:30.646Z,25728
2017-04-25T10:30:31.264Z,25728
2017-04-25T10:31:31.888Z,26464
2017-04-25T10:32:32.508Z,26656
2017-04-25T10:33:33.128Z,27456
2017-04-25T10:34:33.749Z,28352
2017-04-25T10:35:34.373Z,30368
2017-04-25T10:36:34.992Z,34400
2017-04-25T10:37:35.613Z,39808
2017-04-25T10:38:36.221Z,32800
2017-04-25T10:39:36.830Z,33856
2017-04-25T10:40:37.504Z,44576
2017-04-25T10:41:38.118Z,136576
2017-04-25T10:42:38.725Z,142784
2017-04-25T10:43:39.335Z,139136
2017-04-25T10:44:39.956Z,145600
2017-04-25T10:45:40.567Z,149312
2017-04-25T10:46:41.173Z,157152
2017-04-25T10:47:41.783Z,50592
2017-04-25T10:48:42.403Z,41056
2017-04-25T10:49:43.015Z,37472
2017-04-25T10:50:43.643Z,38400
2017-04-25T10:51:44.261Z,45056
2017-04-25T10:52:44.889Z,50752
2017-04-25T10:53:45.503Z,63296
2017-04-25T10:54:46.111Z,52832
2017-04-25T10:55:46.725Z,49472
2017-04-25T10:56:47.348Z,65184
2017-04-25T10:57:47.960Z,49600
2017-04-25T10:58:48.587Z,119456
2017-04-25T10:59:49.211Z,44896
2017-04-25T11:00:49.840Z,38048
2017-04-25T11:01:50.446Z,41952
2017-04-25T11:02:51.067Z,47904
2017-04-25T11:03:51.812Z,57472
2017-04-25T11:04:52.414Z,58368
2017-04-25T11:05:53.089Z,51776
2017-04-25T11:06:53.710Z,48128
2017-04-25T11:07:54.318Z,46272
2017-04-25T11:08:54.927Z,43648
2017-04-25T11:09:55.540Z,39680
2017-04-25T11:10:56.164Z,38688
2017-04-25T11:11:56.764Z,42240
2017-04-25T11:12:57.381Z,40704
2017-04-25T11:13:58.002Z,36224
2017-04-25T11:14:58.622Z,32096
2017-04-25T11:15:59.290Z,27232
2017-04-25T11:16:59.911Z,24064
2017-04-25T11:18:00.533Z,25312
2017-04-25T11:19:01.138Z,30048
2017-04-25T11:20:01.764Z,35808
2017-04-25T11:21:02.382Z,37856
2017-04-25T11:22:03.002Z,37696
2017-04-25T11:23:03.820Z,44736
2017-04-25T11:24:04.646Z,77504
2017-04-25T11:25:05.270Z,50688
2017-04-25T11:26:05.888Z,44800
2017-04-25T11:27:06.497Z,34592
2017-04-25T11:28:07.101Z,28928
2017-04-25T11:29:07.723Z,24128
2017-04-25T11:30:08.462Z,20768
2017-04-25T11:31:09.120Z,18408
2017-04-25T11:32:09.744Z,17888
2017-04-25T11:33:10.363Z,18604
2017-04-25T11:34:10.984Z,20256
2017-04-25T11:35:11.603Z,21536
2017-04-25T11:36:12.220Z,23072
2017-04-25T11:37:12.841Z,24832
2017-04-25T11:38:13.458Z,27648
2017-04-25T11:39:14.088Z,101152
2017-04-25T11:40:14.710Z,101472
2017-04-25T11:41:15.332Z,105024
2017-04-25T11:42:15.955Z,107680
2017-04-25T11:43:16.563Z,105184
2017-04-25T11:44:17.191Z,103552
2017-04-25T11:45:17.804Z,102016
2017-04-25T11:46:18.416Z,101856
2017-04-25T11:47:19.044Z,102720
2017-04-25T11:48:19.662Z,101568
2017-04-25T11:49:20.289Z,99200
2017-04-25T11:50:21.111Z,98336
2017-04-25T11:51:21.733Z,99904
2017-04-25T11:52:22.363Z,108064
2017-04-25T11:53:22.986Z,116192
2017-04-25T11:54:23.610Z,31488
2017-04-25T11:55:24.431Z,30848
2017-04-25T11:56:25.090Z,98336
2017-04-25T11:57:25.706Z,45568
2017-04-25T11:58:26.312Z,18116
2017-04-25T11:59:26.931Z,18140
2017-04-25T12:00:27.552Z,28896
2017-04-25T12:01:28.216Z,119232
2017-04-25T12:02:28.841Z,115264
2017-04-25T12:03:29.467Z,90688
2017-04-25T12:04:30.090Z,22816
2017-04-25T12:05:30.701Z,21888
2017-04-25T12:06:31.373Z,111712
2017-04-25T12:07:31.985Z,28128
2017-04-25T12:08:32.606Z,125056
2017-04-25T12:09:33.228Z,123008
2017-04-25T12:10:33.851Z,110080
2017-04-25T12:11:34.480Z,120608
2017-04-25T12:12:35.109Z,128672
2017-04-25T12:13:35.730Z,137056
2017-04-25T12:14:36.345Z,41856
2017-04-25T12:15:36.957Z,36192
2017-04-25T12:16:37.577Z,33056
2017-04-25T12:17:38.201Z,32928
2017-04-25T12:18:38.816Z,32608
2017-04-25T12:19:39.433Z,59552
2017-04-25T12:20:40.042Z,28896
2017-04-25T12:21:40.646Z,28320
2017-04-25T12:22:41.269Z,40864
2017-04-25T12:23:41.875Z,37344
2017-04-25T12:24:42.489Z,60864
2017-04-25T12:25:43.100Z,49280
2017-04-25T12:26:43.717Z,54272
2017-04-25T12:27:44.580Z,33920
2017-04-25T12:28:45.200Z,30720
2017-04-25T12:29:45.822Z,28672
2017-04-25T12:30:46.444Z,27424
2017-04-25T12:31:47.082Z,26912
2017-04-25T12:32:47.688Z,26656
2017-04-25T12:33:48.314Z,27136
2017-04-25T12:34:48.929Z,28640
2017-04-25T12:35:49.538Z,30656
2017-04-25T12:36:50.223Z,30912
2017-04-25T12:37:50.835Z,31328
2017-04-25T12:38:51.457Z,31168
2017-04-25T12:39:52.085Z,30112
2017-04-25T12:40:52.703Z,28864
2017-04-25T12:41:53.313Z,27680
2017-04-25T12:42:53.918Z,25920
2017-04-25T12:43:54.535Z,23872
2017-04-25T12:44:55.142Z,21920
2017-04-25T12:45:55.768Z,21664
2017-04-25T12:46:56.383Z,23840
2017-04-25T12:47:57.007Z,27008
2017-04-25T12:48:57.628Z,29984
2017-04-25T12:49:58.250Z,31744
2017-04-25T12:50:58.868Z,33504
2017-04-25T12:51:59.488Z,35520
2017-04-25T12:53:00.095Z,38400
2017-04-25T12:54:00.716Z,44256
2017-04-25T12:55:01.319Z,58400
2017-04-25T12:56:01.941Z,75712
2017-04-25T12:57:02.564Z,87136
2017-04-25T12:58:03.187Z,79744
2017-04-25T12:59:03.808Z,81984
2017-04-25T13:00:04.427Z,85856
2017-04-25T13:01:05.044Z,81152
2017-04-25T13:02:05.705Z,38880
2017-04-25T13:03:06.325Z,35680
2017-04-25T13:04:06.943Z,34528
2017-04-25T13:05:07.596Z,36320
2017-04-25T13:06:08.217Z,37472
2017-04-25T13:07:08.837Z,38496
2017-04-25T13:08:09.451Z,43040
2017-04-25T13:09:10.063Z,51040
2017-04-25T13:10:10.681Z,49568
2017-04-25T13:11:11.299Z,44224
2017-04-25T13:12:11.911Z,44928
2017-04-25T13:13:12.533Z,38528
2017-04-25T13:14:13.138Z,34752
2017-04-25T13:15:13.754Z,29024
2017-04-25T13:16:14.371Z,25696
2017-04-25T13:17:15.043Z,22944
2017-04-25T13:18:15.652Z,23488
2017-04-25T13:19:16.277Z,22624
2017-04-25T13:20:16.896Z,19008
2017-04-25T13:21:17.509Z,15252
2017-04-25T13:22:18.314Z,13152
2017-04-25T13:23:18.936Z,12056
2017-04-25T13:24:19.551Z,11312
2017-04-25T13:25:20.152Z,11172
2017-04-25T13:26:20.786Z,11228
2017-04-25T13:27:21.409Z,12400
2017-04-25T13:28:22.056Z,15004
2017-04-25T13:29:22.676Z,19840
2017-04-25T13:30:23.277Z,33984
2017-04-25T13:31:23.901Z,83232
2017-04-25T13:32:24.525Z,67392
2017-04-25T13:33:25.146Z,89216
2017-04-25T13:34:25.752Z,93056
2017-04-25T13:35:26.370Z,91168